Time;durP1;ratioP1;P1;durP2;ratioP2;P2;SDS_P1;SDS_P2;PMS_P1;PMS_P2;Temp;Humidity;BMP_temperature;BMP_pressure;BME280_temperature;BME280_humidity;BME280_pressure;Samples;Min_cycle;Max_cycle;Signal;HPM_P1;HPM_P2
2021/09/04 00:02:13;;;;;;;6.83;4.50;;;14.20;99.90;;;;;;5052491;28;20623;-63
2021/09/04 00:04:39;;;;;;;6.60;4.77;;;14.20;99.90;;;;;;5052296;28;20312;-63
2021/09/04 00:07:06;;;;;;;5.93;4.73;;;14.10;99.90;;;;;;5052919;28;20209;-63
2021/09/04 00:09:33;;;;;;;7.37;4.77;;;14.10;99.90;;;;;;5052258;28;20670;-64
2021/09/04 00:12:00;;;;;;;7.70;5.43;;;14.10;99.90;;;;;;5052180;28;20581;-63
2021/09/04 00:14:28;;;;;;;8.53;4.70;;;14.10;99.90;;;;;;5051939;28;20209;-63
2021/09/04 00:16:55;;;;;;;5.80;4.90;;;14.00;99.90;;;;;;5051763;28;20213;-63
2021/09/04 00:19:22;;;;;;;8.53;4.80;;;14.00;99.90;;;;;;5051995;28;20724;-63
2021/09/04 00:21:48;;;;;;;7.57;4.80;;;14.00;99.90;;;;;;5052152;28;20202;-64
2021/09/04 00:24:15;;;;;;;7.47;5.20;;;14.00;99.90;;;;;;5051814;28;20205;-64
2021/09/04 00:26:42;;;;;;;6.27;4.70;;;13.90;99.90;;;;;;5052213;28;20701;-64
2021/09/04 00:29:08;;;;;;;7.07;5.03;;;13.90;99.90;;;;;;5051705;28;20206;-64
2021/09/04 00:31:36;;;;;;;7.87;5.03;;;13.90;99.90;;;;;;5051784;28;20205;-64
2021/09/04 00:34:03;;;;;;;6.40;5.00;;;13.80;99.90;;;;;;5051587;28;20674;-64
2021/09/04 00:36:30;;;;;;;5.97;4.87;;;13.90;99.90;;;;;;5051676;28;20222;-64
2021/09/04 00:38:56;;;;;;;5.90;4.70;;;13.90;99.90;;;;;;5051622;28;20216;-64
2021/09/04 00:41:23;;;;;;;6.73;4.93;;;13.80;99.90;;;;;;5051525;28;20585;-64
2021/09/04 00:43:50;;;;;;;5.47;4.73;;;13.80;99.90;;;;;;5051746;28;20205;-64
2021/09/04 00:46:17;;;;;;;8.43;5.23;;;13.90;99.90;;;;;;5051629;28;20222;-64
2021/09/04 00:48:45;;;;;;;6.23;4.60;;;13.80;99.90;;;;;;5051467;28;20727;-64
2021/09/04 00:51:12;;;;;;;7.37;5.27;;;13.80;99.90;;;;;;5051640;28;20278;-64
2021/09/04 00:53:38;;;;;;;7.13;5.53;;;13.70;99.90;;;;;;5051643;28;20232;-64
2021/09/04 00:56:05;;;;;;;7.10;5.00;;;13.70;99.90;;;;;;5051414;28;20646;-65
2021/09/04 00:58:32;;;;;;;6.10;4.70;;;13.70;99.90;;;;;;5051609;28;20621;-64
2021/09/04 01:00:59;;;;;;;5.77;4.80;;;13.70;99.90;;;;;;5051538;28;20226;-64
2021/09/04 01:03:26;;;;;;;10.03;5.10;;;13.70;99.90;;;;;;5051159;28;20300;-64
2021/09/04 01:05:54;;;;;;;5.97;5.37;;;13.70;99.90;;;;;;5051250;28;20230;-64
2021/09/04 01:08:21;;;;;;;7.10;4.93;;;13.70;99.90;;;;;;5051000;28;20700;-64
2021/09/04 01:10:51;;;;;;;6.70;4.90;;;13.70;99.90;;;;;;5051392;28;20506;-64
2021/09/04 01:13:18;;;;;;;5.93;4.93;;;13.60;99.90;;;;;;5051291;28;20241;-64
2021/09/04 01:15:45;;;;;;;6.20;5.03;;;13.70;99.90;;;;;;5050817;28;20225;-64
2021/09/04 01:18:12;;;;;;;8.23;5.10;;;13.60;99.90;;;;;;5050938;28;20228;-64
2021/09/04 01:20:39;;;;;;;6.50;4.90;;;13.60;99.90;;;;;;5051037;28;20268;-64
2021/09/04 01:23:07;;;;;;;8.93;5.13;;;13.60;99.90;;;;;;5050774;28;20216;-64
2021/09/04 01:25:35;;;;;;;7.20;4.97;;;13.60;99.90;;;;;;5050534;28;20721;-64
2021/09/04 01:28:04;;;;;;;7.87;5.50;;;13.60;99.90;;;;;;5050613;28;20549;-64
2021/09/04 01:30:31;;;;;;;7.67;4.77;;;13.60;99.90;;;;;;5050275;28;20198;-64
2021/09/04 01:32:58;;;;;;;6.43;5.27;;;13.50;99.90;;;;;;5050829;28;20217;-64
2021/09/04 01:35:26;;;;;;;8.90;5.40;;;13.50;99.90;;;;;;5050560;28;20229;-64
2021/09/04 01:37:53;;;;;;;10.47;4.60;;;13.50;99.90;;;;;;5050897;28;20260;-64
2021/09/04 01:40:20;;;;;;;9.87;6.37;;;13.50;99.90;;;;;;5050607;28;20225;-63
2021/09/04 01:42:49;;;;;;;8.10;5.53;;;13.60;99.90;;;;;;5051606;28;20217;-63
2021/09/04 01:45:18;;;;;;;6.90;5.00;;;13.50;99.90;;;;;;5050672;28;20281;-64
2021/09/04 01:47:44;;;;;;;6.70;4.97;;;13.60;99.90;;;;;;5050806;28;20271;-64
2021/09/04 01:50:13;;;;;;;6.07;5.03;;;13.50;99.90;;;;;;5050651;28;20201;-63
2021/09/04 01:52:41;;;;;;;6.47;4.97;;;13.50;99.90;;;;;;5051013;28;20206;-64
2021/09/04 01:55:09;;;;;;;6.23;4.43;;;13.50;99.90;;;;;;5050597;28;20339;-62
2021/09/04 01:57:36;;;;;;;7.50;5.07;;;13.50;99.90;;;;;;5050676;28;20217;-63
2021/09/04 02:00:04;;;;;;;4.80;4.30;;;13.40;99.90;;;;;;5050440;28;20279;-62
2021/09/04 02:02:32;;;;;;;5.30;4.60;;;13.40;99.90;;;;;;5050455;28;20209;-63
2021/09/04 02:04:59;;;;;;;4.90;4.27;;;13.40;99.90;;;;;;5050401;28;20230;-63
2021/09/04 02:07:26;;;;;;;6.33;4.93;;;13.30;99.90;;;;;;5050869;28;20205;-63
2021/09/04 02:09:52;;;;;;;7.13;5.80;;;13.30;99.90;;;;;;5051141;28;20202;-63
2021/09/04 02:12:19;;;;;;;7.63;5.40;;;13.30;99.90;;;;;;5050626;28;20555;-63
2021/09/04 02:14:46;;;;;;;6.10;5.43;;;13.30;99.90;;;;;;5050304;28;20721;-63
2021/09/04 02:17:12;;;;;;;7.87;5.43;;;13.30;99.90;;;;;;5050447;28;20271;-64
2021/09/04 02:19:40;;;;;;;7.50;5.43;;;13.20;99.90;;;;;;5050524;28;20229;-64
2021/09/04 02:22:07;;;;;;;8.27;5.70;;;13.20;99.90;;;;;;5050497;28;20217;-63
2021/09/04 02:24:34;;;;;;;7.60;5.70;;;13.20;99.90;;;;;;5050377;28;20234;-64
2021/09/04 02:27:01;;;;;;;10.20;5.50;;;13.20;99.90;;;;;;5050499;28;20255;-63
2021/09/04 02:29:27;;;;;;;7.50;5.50;;;13.10;99.90;;;;;;5050258;28;20647;-64
2021/09/04 02:31:54;;;;;;;7.23;5.30;;;13.10;99.90;;;;;;5050158;28;20263;-64
2021/09/04 02:34:21;;;;;;;7.47;5.47;;;13.10;99.90;;;;;;5050256;28;20335;-64
2021/09/04 02:36:49;;;;;;;6.67;5.30;;;13.10;99.90;;;;;;5050196;28;20706;-63
2021/09/04 02:39:15;;;;;;;5.07;4.57;;;13.00;99.90;;;;;;5050322;28;20214;-64
2021/09/04 02:41:42;;;;;;;7.67;5.50;;;13.10;99.90;;;;;;5053024;28;20225;-64
2021/09/04 02:44:09;;;;;;;6.83;5.17;;;13.00;99.90;;;;;;5053775;28;20240;-63
2021/09/04 02:46:36;;;;;;;9.17;4.90;;;13.00;99.90;;;;;;5053828;28;20480;-64
2021/09/04 02:49:02;;;;;;;10.47;5.50;;;12.90;99.90;;;;;;5053995;28;20216;-64
2021/09/04 02:51:29;;;;;;;7.27;5.17;;;12.90;99.90;;;;;;5054290;28;20259;-64
2021/09/04 02:53:57;;;;;;;6.33;5.40;;;12.90;99.90;;;;;;5053733;28;20260;-64
2021/09/04 02:56:24;;;;;;;7.10;5.60;;;12.90;99.90;;;;;;5054173;28;20279;-64
2021/09/04 02:58:51;;;;;;;6.03;4.97;;;12.90;99.90;;;;;;5053720;28;20217;-63
2021/09/04 03:01:17;;;;;;;7.47;5.00;;;12.80;99.90;;;;;;5053563;28;20705;-63
2021/09/04 03:03:44;;;;;;;5.73;5.13;;;12.80;99.90;;;;;;5053787;28;20206;-63
2021/09/04 03:06:11;;;;;;;5.80;4.90;;;12.80;99.90;;;;;;5053745;28;20654;-64
2021/09/04 03:08:37;;;;;;;6.10;4.73;;;12.70;99.90;;;;;;5053395;28;20900;-64
2021/09/04 03:11:06;;;;;;;6.10;4.70;;;12.70;99.90;;;;;;5053470;28;20251;-64
2021/09/04 03:13:33;;;;;;;6.53;5.20;;;12.60;99.90;;;;;;5053537;28;20214;-63
2021/09/04 03:15:59;;;;;;;7.07;5.17;;;12.60;99.90;;;;;;5053479;28;20237;-64
2021/09/04 03:18:26;;;;;;;6.57;5.17;;;12.60;99.90;;;;;;5053304;28;20255;-65
2021/09/04 03:20:52;;;;;;;6.73;5.10;;;12.50;99.90;;;;;;5053570;28;20284;-63
2021/09/04 03:23:19;;;;;;;6.97;5.07;;;12.50;99.90;;;;;;5053391;28;20251;-64
2021/09/04 03:25:46;;;;;;;6.27;5.10;;;12.50;99.90;;;;;;5053719;28;20234;-64
2021/09/04 03:28:14;;;;;;;5.30;4.73;;;12.50;99.90;;;;;;5053005;28;20205;-64
2021/09/04 03:30:40;;;;;;;7.83;5.40;;;12.50;99.90;;;;;;5053295;28;20198;-63
2021/09/04 03:33:07;;;;;;;6.20;5.13;;;12.50;99.90;;;;;;5053292;28;20630;-64
2021/09/04 03:35:34;;;;;;;7.03;5.20;;;12.50;99.90;;;;;;5052919;28;20654;-63
2021/09/04 03:38:01;;;;;;;6.47;5.47;;;12.50;99.90;;;;;;5052844;28;20685;-64
2021/09/04 03:40:27;;;;;;;9.57;5.60;;;12.50;99.90;;;;;;5053336;28;20222;-64
2021/09/04 03:42:54;;;;;;;6.60;5.10;;;12.50;99.90;;;;;;5052973;28;20263;-64
2021/09/04 03:45:22;;;;;;;6.00;5.37;;;12.40;99.90;;;;;;5052669;28;20260;-64
2021/09/04 03:47:48;;;;;;;7.47;5.80;;;12.40;99.90;;;;;;5052732;28;20206;-64
2021/09/04 03:50:15;;;;;;;5.97;5.07;;;12.40;99.90;;;;;;5052835;28;20202;-64
2021/09/04 03:52:42;;;;;;;6.43;5.30;;;12.30;99.90;;;;;;5051863;28;20618;-64
2021/09/04 03:55:09;;;;;;;7.27;5.70;;;12.30;99.90;;;;;;5052500;28;20229;-64
2021/09/04 03:57:36;;;;;;;6.33;5.70;;;12.40;99.90;;;;;;5052811;28;20210;-64
2021/09/04 04:00:03;;;;;;;6.43;5.17;;;12.30;99.90;;;;;;5052597;28;20213;-63
2021/09/04 04:02:31;;;;;;;6.20;5.60;;;12.30;99.90;;;;;;5052632;28;20255;-64
2021/09/04 04:04:57;;;;;;;6.77;5.73;;;12.30;99.90;;;;;;5052061;28;20238;-64
2021/09/04 04:07:24;;;;;;;7.33;5.57;;;12.30;99.90;;;;;;5052487;28;20308;-64
2021/09/04 04:09:51;;;;;;;8.37;6.17;;;12.30;99.90;;;;;;5052189;28;20206;-64
2021/09/04 04:12:17;;;;;;;5.90;4.90;;;12.30;99.90;;;;;;5052770;28;20214;-64
2021/09/04 04:14:44;;;;;;;6.00;5.30;;;12.20;99.90;;;;;;5052213;28;20225;-64
2021/09/04 04:17:11;;;;;;;8.30;5.37;;;12.20;99.90;;;;;;5052174;28;20216;-64
2021/09/04 04:19:39;;;;;;;7.10;5.50;;;12.20;99.90;;;;;;5052051;28;20210;-64
2021/09/04 04:22:05;;;;;;;6.17;5.23;;;12.20;99.90;;;;;;5051922;28;20232;-64
2021/09/04 04:24:32;;;;;;;6.57;5.73;;;12.20;99.90;;;;;;5051709;28;20229;-64
2021/09/04 04:27:01;;;;;;;8.53;5.70;;;12.20;99.90;;;;;;5052216;28;20262;-64
2021/09/04 04:29:28;;;;;;;7.17;5.27;;;12.20;99.90;;;;;;5052072;28;20210;-64
2021/09/04 04:31:54;;;;;;;7.67;5.50;;;12.10;99.90;;;;;;5052156;28;20201;-64
2021/09/04 04:34:21;;;;;;;10.97;5.47;;;12.10;99.90;;;;;;5051818;28;20577;-63
2021/09/04 04:36:49;;;;;;;8.60;5.13;;;12.10;99.90;;;;;;5052270;28;20681;-63
2021/09/04 04:39:16;;;;;;;7.00;5.97;;;12.10;99.90;;;;;;5052207;28;20634;-64
2021/09/04 04:41:42;;;;;;;7.00;5.93;;;12.20;99.90;;;;;;5052193;28;20252;-64
2021/09/04 04:44:09;;;;;;;6.23;5.50;;;12.20;99.90;;;;;;5052227;28;20522;-64
2021/09/04 04:46:36;;;;;;;5.80;5.20;;;12.20;99.90;;;;;;5051975;28;20209;-64
2021/09/04 04:49:02;;;;;;;8.67;5.07;;;12.20;99.90;;;;;;5051697;28;20208;-64
2021/09/04 04:51:29;;;;;;;6.23;5.47;;;12.20;99.90;;;;;;5051637;28;20208;-63
2021/09/04 04:53:57;;;;;;;7.40;5.57;;;12.20;99.90;;;;;;5051620;28;20205;-64
2021/09/04 04:56:24;;;;;;;6.93;5.90;;;12.50;99.90;;;;;;5051563;28;20226;-64
2021/09/04 04:58:51;;;;;;;7.90;6.20;;;12.30;99.90;;;;;;5051395;28;20256;-63
2021/09/04 05:01:18;;;;;;;7.13;5.70;;;12.30;99.90;;;;;;5051368;28;20232;-63
2021/09/04 05:03:44;;;;;;;8.67;6.27;;;12.30;99.90;;;;;;5051105;28;20201;-64
2021/09/04 05:06:11;;;;;;;9.60;6.17;;;12.30;99.90;;;;;;5051203;28;20260;-64
2021/09/04 05:08:37;;;;;;;7.87;6.47;;;12.30;99.90;;;;;;5051470;28;20216;-64
2021/09/04 05:11:05;;;;;;;6.63;5.87;;;12.30;99.90;;;;;;5051281;28;20197;-64
2021/09/04 05:13:32;;;;;;;6.80;5.70;;;12.20;99.90;;;;;;5050901;28;20208;-64
2021/09/04 05:15:59;;;;;;;6.43;5.83;;;12.20;99.90;;;;;;5051132;28;20225;-64
2021/09/04 05:18:25;;;;;;;7.77;5.50;;;12.20;99.90;;;;;;5050888;28;20217;-64
2021/09/04 05:20:52;;;;;;;5.67;5.07;;;12.20;99.90;;;;;;5050916;28;20230;-64
2021/09/04 05:23:19;;;;;;;7.20;5.37;;;12.20;99.90;;;;;;5051089;28;20210;-64
2021/09/04 05:25:46;;;;;;;6.27;5.47;;;12.30;99.90;;;;;;5050794;28;20321;-63
2021/09/04 05:28:14;;;;;;;7.17;5.20;;;12.30;99.90;;;;;;5050898;28;20217;-64
2021/09/04 05:30:41;;;;;;;7.57;5.63;;;12.40;99.90;;;;;;5050913;28;20205;-64
2021/09/04 05:33:08;;;;;;;7.33;5.67;;;12.40;99.90;;;;;;5050862;28;20213;-63
2021/09/04 05:35:34;;;;;;;5.97;5.13;;;12.50;99.90;;;;;;5050840;28;20234;-63
2021/09/04 05:38:01;;;;;;;5.53;5.03;;;12.60;99.90;;;;;;5050922;28;20270;-63
2021/09/04 05:40:28;;;;;;;5.70;5.10;;;12.70;99.90;;;;;;5051023;28;20239;-64
2021/09/04 05:42:54;;;;;;;5.77;4.87;;;13.30;99.90;;;;;;5050883;28;20216;-65
2021/09/04 05:45:22;;;;;;;4.90;4.37;;;14.50;99.90;;;;;;5050605;28;20233;-63
2021/09/04 05:47:49;;;;;;;5.93;4.30;;;15.90;99.90;;;;;;5050723;28;20216;-64
2021/09/04 05:50:16;;;;;;;5.37;3.77;;;17.20;99.90;;;;;;5050963;28;20213;-63
2021/09/04 05:52:42;;;;;;;4.97;4.32;;;18.40;99.90;;;;;;5050894;28;20202;-65
2021/09/04 05:55:09;;;;;;;7.03;3.75;;;19.40;99.90;;;;;;5050560;28;20229;-63
2021/09/04 05:57:36;;;;;;;4.20;3.33;;;20.30;99.90;;;;;;5050694;28;20255;-63
2021/09/04 06:00:04;;;;;;;4.55;3.72;;;21.00;99.90;;;;;;5050455;28;20217;-64
2021/09/04 06:02:32;;;;;;;6.25;3.80;;;21.70;99.90;;;;;;5050700;28;20499;-64
2021/09/04 06:04:59;;;;;;;6.03;3.72;;;22.30;99.90;;;;;;5050414;28;20660;-64
2021/09/04 06:07:25;;;;;;;5.93;4.10;;;22.90;99.90;;;;;;5050535;28;20206;-64
2021/09/04 06:09:52;;;;;;;4.30;3.70;;;23.40;99.90;;;;;;5050310;28;20210;-64
2021/09/04 06:12:19;;;;;;;4.88;3.85;;;24.10;99.90;;;;;;5050309;28;20263;-64
2021/09/04 06:14:45;;;;;;;7.00;3.60;;;24.50;99.90;;;;;;5049955;28;20226;-64
2021/09/04 06:17:12;;;;;;;4.30;3.90;;;25.00;99.90;;;;;;5054382;28;20205;-64
2021/09/04 06:19:40;;;;;;;6.80;3.90;;;25.80;99.90;;;;;;5054326;28;20205;-64
2021/09/04 06:22:07;;;;;;;4.47;3.60;;;26.70;99.90;;;;;;5054271;28;20263;-64
2021/09/04 06:24:33;;;;;;;4.80;4.20;;;27.40;98.70;;;;;;5053996;28;20234;-64
2021/09/04 06:27:00;;;;;;;5.20;4.32;;;27.70;97.00;;;;;;5054144;28;20209;-65
2021/09/04 06:29:27;;;;;;;4.88;4.28;;;28.20;95.80;;;;;;5053780;28;20279;-64
2021/09/04 06:31:53;;;;;;;4.43;3.80;;;28.30;93.00;;;;;;5054210;28;20201;-65
2021/09/04 06:34:20;;;;;;;5.72;3.92;;;28.10;93.50;;;;;;5054029;28;20270;-65
2021/09/04 06:36:48;;;;;;;6.38;4.50;;;28.40;92.80;;;;;;5053996;28;20211;-64
2021/09/04 06:39:15;;;;;;;5.30;4.18;;;29.10;90.70;;;;;;5053570;28;20205;-65
2021/09/04 06:41:41;;;;;;;5.57;4.18;;;29.70;88.60;;;;;;5053818;28;20875;-65
2021/09/04 06:44:08;;;;;;;4.35;3.92;;;30.50;86.00;;;;;;5053955;28;20209;-64
2021/09/04 06:46:35;;;;;;;7.18;4.03;;;31.20;83.60;;;;;;5054205;28;20271;-64
2021/09/04 06:49:01;;;;;;;6.45;4.82;;;31.80;79.80;;;;;;5054295;28;20201;-65
2021/09/04 06:51:28;;;;;;;4.50;4.10;;;32.20;75.20;;;;;;5054473;28;20217;-65
2021/09/04 06:53:56;;;;;;;11.20;10.10;;;32.50;73.10;;;;;;5053943;28;20677;-65
2021/09/04 06:56:23;;;;;;;7.13;4.45;;;32.60;71.70;;;;;;5054012;28;20236;-65
2021/09/04 06:58:50;;;;;;;4.22;3.83;;;32.50;70.90;;;;;;5054090;28;20205;-63
2021/09/04 07:01:16;;;;;;;7.10;4.25;;;32.50;69.50;;;;;;5054100;28;20271;-65
2021/09/04 07:03:43;;;;;;;5.43;4.20;;;32.90;68.70;;;;;;5053537;28;20213;-65
2021/09/04 07:06:10;;;;;;;5.07;4.57;;;33.30;68.20;;;;;;5053558;28;20225;-65
2021/09/04 07:08:37;;;;;;;5.00;3.85;;;33.70;65.70;;;;;;5053284;28;20216;-65
2021/09/04 07:11:05;;;;;;;4.80;4.30;;;34.10;62.70;;;;;;5053220;28;20206;-63
2021/09/04 07:13:31;;;;;;;5.20;4.13;;;34.00;62.40;;;;;;5054452;28;20228;-67
2021/09/04 07:15:59;;;;;;;4.70;3.55;;;34.00;62.00;;;;;;5053231;28;20252;-67
2021/09/04 07:18:25;;;;;;;5.30;4.03;;;34.10;62.00;;;;;;5053192;28;20221;-67
2021/09/04 07:20:52;;;;;;;7.30;3.85;;;34.60;60.50;;;;;;5053034;28;20728;-67
2021/09/04 07:23:19;;;;;;;4.43;3.95;;;35.00;59.60;;;;;;5053118;28;20217;-67
2021/09/04 07:25:46;;;;;;;19.95;15.90;;;35.40;58.60;;;;;;5052694;28;20283;-67
2021/09/04 07:28:14;;;;;;;7.20;4.40;;;35.70;57.80;;;;;;5051648;28;20205;-67
2021/09/04 07:30:41;;;;;;;6.07;3.85;;;35.80;57.20;;;;;;5053109;28;20213;-67
2021/09/04 07:33:07;;;;;;;12.88;9.50;;;35.80;56.20;;;;;;5053159;28;20205;-67
2021/09/04 07:35:34;;;;;;;6.22;4.25;;;36.00;56.20;;;;;;5052631;28;20230;-64
2021/09/04 07:38:01;;;;;;;7.82;4.68;;;36.40;55.50;;;;;;5052755;28;20560;-66
2021/09/04 07:40:28;;;;;;;4.80;3.97;;;36.60;54.70;;;;;;5052930;28;20217;-67
2021/09/04 07:42:55;;;;;;;4.80;4.00;;;36.80;54.30;;;;;;5052772;28;20231;-67
2021/09/04 07:45:23;;;;;;;4.90;4.38;;;36.90;53.90;;;;;;5052786;28;20226;-67
2021/09/04 07:47:49;;;;;;;4.93;4.00;;;37.10;53.80;;;;;;5052592;28;20202;-67
2021/09/04 07:50:16;;;;;;;6.40;4.22;;;37.20;54.50;;;;;;5052761;28;20243;-66
2021/09/04 07:52:43;;;;;;;6.55;4.32;;;37.40;54.00;;;;;;5052698;28;20202;-67
2021/09/04 07:55:10;;;;;;;7.63;5.72;;;37.70;53.60;;;;;;5052416;28;20232;-67
2021/09/04 07:57:37;;;;;;;8.02;4.07;;;37.70;53.00;;;;;;5052685;28;20587;-67
2021/09/04 08:00:04;;;;;;;6.65;4.38;;;37.60;52.20;;;;;;5052498;28;20206;-67
2021/09/04 08:02:32;;;;;;;5.07;4.32;;;37.40;52.50;;;;;;5052421;28;20232;-67
2021/09/04 08:04:59;;;;;;;5.07;4.50;;;37.30;52.50;;;;;;5052100;28;20232;-66
2021/09/04 08:07:26;;;;;;;5.50;4.30;;;37.30;52.50;;;;;;5052105;28;20202;-67
2021/09/04 08:09:52;;;;;;;9.65;4.57;;;36.60;52.80;;;;;;5052088;28;20259;-66
2021/09/04 08:12:19;;;;;;;5.82;4.45;;;35.00;55.00;;;;;;5052079;28;20678;-66
2021/09/04 08:14:46;;;;;;;5.13;4.35;;;33.30;58.30;;;;;;5051962;28;20763;-66
2021/09/04 08:17:12;;;;;;;5.28;4.20;;;31.70;61.10;;;;;;5051961;28;20300;-66
2021/09/04 08:19:40;;;;;;;5.93;4.43;;;30.20;65.00;;;;;;5051845;28;20213;-66
2021/09/04 08:22:07;;;;;;;6.43;4.47;;;29.10;67.80;;;;;;5052070;28;20229;-66
2021/09/04 08:24:34;;;;;;;4.93;4.32;;;28.10;71.00;;;;;;5051676;28;20237;-66
2021/09/04 08:27:01;;;;;;;5.10;4.60;;;27.20;74.40;;;;;;5051947;28;20228;-66
2021/09/04 08:29:28;;;;;;;7.47;5.25;;;26.60;77.40;;;;;;5051932;28;20259;-65
2021/09/04 08:31:54;;;;;;;6.43;4.32;;;26.00;79.40;;;;;;5052213;28;20198;-67
2021/09/04 08:34:21;;;;;;;8.63;4.68;;;25.50;81.90;;;;;;5051999;28;20206;-65
2021/09/04 08:36:49;;;;;;;6.53;4.53;;;25.10;84.00;;;;;;5052368;28;20213;-66
2021/09/04 08:39:16;;;;;;;6.57;4.63;;;24.80;86.90;;;;;;5051415;28;20629;-65
2021/09/04 08:41:42;;;;;;;5.68;4.82;;;24.50;88.90;;;;;;5051516;28;20225;-66
2021/09/04 08:44:09;;;;;;;7.90;4.90;;;24.30;90.30;;;;;;5051250;28;20209;-65
2021/09/04 08:46:38;;;;;;;8.38;5.00;;;24.10;91.10;;;;;;5051584;28;20359;-66
2021/09/04 08:49:07;;;;;;;5.47;4.70;;;23.90;91.80;;;;;;5051200;28;20670;-65
2021/09/04 08:51:34;;;;;;;6.15;4.50;;;23.80;92.60;;;;;;5051388;28;20210;-66
2021/09/04 08:54:03;;;;;;;6.15;4.85;;;23.70;93.40;;;;;;5051256;28;20232;-66
2021/09/04 08:56:30;;;;;;;6.20;4.30;;;23.60;93.90;;;;;;5051049;28;20669;-65
2021/09/04 08:58:56;;;;;;;7.10;4.93;;;23.50;94.90;;;;;;5051060;28;20205;-65
2021/09/04 09:01:25;;;;;;;5.57;4.47;;;23.30;95.90;;;;;;5051034;28;20209;-65
2021/09/04 09:03:53;;;;;;;5.43;4.80;;;23.10;96.50;;;;;;5051175;28;20208;-66
2021/09/04 09:06:26;;;;;;;5.45;4.50;;;22.90;97.50;;;;;;5051180;28;20237;-66
2021/09/04 09:08:53;;;;;;;5.35;4.68;;;22.80;97.70;;;;;;5050974;28;20312;-66
2021/09/04 09:11:22;;;;;;;9.50;5.95;;;23.00;98.30;;;;;;5050939;28;20655;-66
2021/09/04 09:13:51;;;;;;;6.60;4.50;;;23.10;98.10;;;;;;5050669;28;20212;-66
2021/09/04 09:16:20;;;;;;;6.68;4.50;;;23.20;98.10;;;;;;5050990;28;20232;-66
2021/09/04 09:18:58;;;;;;;6.90;4.72;;;23.30;98.30;;;;;;5050971;28;20209;-66
2021/09/04 09:21:30;;;;;;;5.05;4.05;;;23.40;97.00;;;;;;5050929;28;20205;-66
2021/09/04 09:24:11;;;;;;;6.13;3.75;;;23.40;97.70;;;;;;5050511;28;20229;-66
2021/09/04 09:26:47;;;;;;;7.97;3.90;;;23.50;97.80;;;;;;5091585;22;20229;-60
2021/09/04 09:29:16;;;;;;;5.13;4.10;;;23.70;97.30;;;;;;5071197;28;20291;-58
2021/09/04 09:31:43;;;;;;;5.45;4.45;;;23.70;97.70;;;;;;5071107;28;20239;-60
2021/09/04 09:34:10;;;;;;;7.95;4.40;;;23.80;98.60;;;;;;5070965;28;20246;-59
2021/09/04 09:36:48;;;;;;;4.97;4.45;;;23.90;98.60;;;;;;5070735;28;20228;-59
2021/09/04 09:39:15;;;;;;;6.13;4.10;;;23.90;97.60;;;;;;5070922;28;20236;-60
2021/09/04 09:41:48;;;;;;;5.30;4.15;;;24.10;97.60;;;;;;5070830;28;20201;-59
2021/09/04 09:44:18;;;;;;;5.72;4.15;;;24.10;97.20;;;;;;5070825;28;20232;-60
2021/09/04 09:46:49;;;;;;;6.18;5.50;;;24.20;96.80;;;;;;5070624;28;20221;-59
2021/09/04 09:49:15;;;;;;;5.85;4.30;;;24.30;97.30;;;;;;5070543;28;20213;-60
2021/09/04 09:51:43;;;;;;;4.97;3.85;;;24.40;97.10;;;;;;5070020;28;20205;-60
2021/09/04 09:54:11;;;;;;;4.68;4.15;;;24.40;96.30;;;;;;5070396;28;20593;-59
2021/09/04 09:56:38;;;;;;;4.53;3.67;;;24.40;96.30;;;;;;5070694;28;20221;-59
2021/09/04 09:59:07;;;;;;;5.07;3.42;;;24.40;92.90;;;;;;5070660;28;20250;-59
2021/09/04 10:01:34;;;;;;;3.70;3.15;;;24.40;90.80;;;;;;5070707;28;20575;-57
2021/09/04 10:04:01;;;;;;;4.63;3.67;;;24.40;90.70;;;;;;5070619;28;20709;-59
2021/09/04 10:06:28;;;;;;;5.72;3.15;;;24.50;90.70;;;;;;5070678;28;20639;-58
2021/09/04 10:08:56;;;;;;;6.55;3.60;;;24.70;90.50;;;;;;5070915;28;20205;-59
2021/09/04 10:11:23;;;;;;;4.95;3.53;;;24.80;90.10;;;;;;5070634;28;20219;-59
2021/09/04 10:13:50;;;;;;;4.65;3.92;;;25.00;90.40;;;;;;5070475;28;20204;-59
2021/09/04 10:16:18;;;;;;;6.40;4.10;;;25.10;89.50;;;;;;5070700;28;20224;-58
2021/09/04 10:18:45;;;;;;;4.82;3.65;;;25.20;90.00;;;;;;5070590;28;20216;-58
2021/09/04 10:21:13;;;;;;;6.65;3.80;;;25.20;89.20;;;;;;5071004;28;20623;-59
2021/09/04 10:23:48;;;;;;;4.50;3.40;;;25.30;89.00;;;;;;5070502;28;20723;-58
2021/09/04 10:26:26;;;;;;;5.30;3.40;;;25.40;88.60;;;;;;5070778;28;20290;-58
2021/09/04 10:28:57;;;;;;;4.82;3.53;;;25.40;88.90;;;;;;5070587;28;20254;-59
2021/09/04 10:31:55;;;;;;;3.95;3.55;;;25.40;89.40;;;;;;5070883;28;20296;-58
2021/09/04 10:34:27;;;;;;;4.15;3.47;;;25.50;88.80;;;;;;5071178;28;20216;-58
2021/09/04 10:36:59;;;;;;;6.45;3.60;;;25.70;89.50;;;;;;5070366;28;20247;-57
2021/09/04 10:39:46;;;;;;;4.93;4.03;;;25.80;89.50;;;;;;5070451;28;20636;-58
2021/09/04 10:42:15;;;;;;;3.90;3.42;;;25.90;89.20;;;;;;5070379;28;20225;-59
2021/09/04 10:44:44;;;;;;;5.90;3.40;;;25.70;88.20;;;;;;5070356;28;20653;-59
2021/09/04 10:47:12;;;;;;;5.75;4.03;;;25.60;88.40;;;;;;5070177;28;20212;-58
2021/09/04 10:49:40;;;;;;;5.65;3.70;;;25.60;88.60;;;;;;5070559;28;20209;-59
2021/09/04 10:52:07;;;;;;;5.00;3.78;;;25.60;88.60;;;;;;5069992;28;20292;-59
2021/09/04 10:55:02;;;;;;;4.78;3.88;;;25.70;88.40;;;;;;5070073;28;20209;-58
2021/09/04 10:57:46;;;;;;;4.75;3.90;;;25.80;89.80;;;;;;5070194;28;20209;-59
2021/09/04 11:00:21;;;;;;;4.95;3.60;;;25.90;88.40;;;;;;5069826;28;20249;-59
2021/09/04 11:02:53;;;;;;;3.92;3.53;;;26.00;86.80;;;;;;5072994;28;20232;-59
2021/09/04 11:05:38;;;;;;;4.40;3.47;;;26.00;86.70;;;;;;5073605;28;20229;-59
2021/09/04 11:08:07;;;;;;;4.30;3.60;;;25.90;85.90;;;;;;5073815;28;20247;-59
2021/09/04 11:10:35;;;;;;;5.00;3.70;;;25.90;85.90;;;;;;5073639;28;20680;-59
2021/09/04 11:13:35;;;;;;;4.38;3.42;;;26.00;86.30;;;;;;5073539;28;20242;-59
2021/09/04 11:16:31;;;;;;;4.18;3.70;;;26.00;86.30;;;;;;5073519;28;20229;-59
2021/09/04 11:19:07;;;;;;;3.90;3.50;;;26.20;86.10;;;;;;5068616;28;20216;-59
2021/09/04 11:21:44;;;;;;;6.32;3.75;;;26.20;85.50;;;;;;5073276;28;20299;-59
2021/09/04 11:24:12;;;;;;;4.65;3.40;;;26.10;85.20;;;;;;5073287;28;20224;-58
2021/09/04 11:26:52;;;;;;;3.42;3.03;;;26.00;84.90;;;;;;5073044;28;20232;-59
2021/09/04 11:29:19;;;;;;;5.18;3.63;;;26.20;85.00;;;;;;5072986;28;20208;-58
2021/09/04 11:32:00;;;;;;;3.33;3.03;;;26.10;84.10;;;;;;5073198;28;20213;-58
2021/09/04 11:34:39;;;;;;;4.55;3.47;;;26.10;84.90;;;;;;5073018;28;20205;-58
2021/09/04 11:37:26;;;;;;;5.15;4.00;;;26.20;83.80;;;;;;5073112;28;20454;-59
2021/09/04 11:39:55;;;;;;;4.80;3.85;;;26.10;84.40;;;;;;5072999;28;20217;-59
2021/09/04 11:42:24;;;;;;;6.43;3.92;;;26.10;84.10;;;;;;5072980;28;20204;-59
2021/09/04 11:44:53;;;;;;;4.70;3.63;;;26.10;84.10;;;;;;5072634;28;20232;-59
2021/09/04 11:47:20;;;;;;;4.32;3.90;;;26.20;83.50;;;;;;5072952;28;20216;-59
2021/09/04 11:49:50;;;;;;;4.90;3.45;;;26.30;84.00;;;;;;5073155;28;20213;-59
2021/09/04 11:52:23;;;;;;;3.90;3.50;;;26.40;83.70;;;;;;5072701;28;20209;-58
2021/09/04 11:54:51;;;;;;;5.38;3.70;;;26.50;82.60;;;;;;5072817;28;20229;-59
2021/09/04 11:57:26;;;;;;;4.68;3.85;;;26.40;83.40;;;;;;5073145;28;20205;-59
2021/09/04 12:00:05;;;;;;;5.35;3.42;;;26.40;83.40;;;;;;5072615;28;20212;-60
2021/09/04 12:02:31;;;;;;;5.25;4.00;;;26.40;82.80;;;;;;5072848;28;20584;-59
2021/09/04 12:05:04;;;;;;;3.75;3.40;;;26.50;83.40;;;;;;5072453;28;20306;-60
2021/09/04 12:07:31;;;;;;;4.68;3.65;;;26.50;83.40;;;;;;5072762;28;20227;-56
2021/09/04 12:10:01;;;;;;;5.18;3.78;;;26.60;83.40;;;;;;5072740;28;20208;-58
2021/09/04 12:12:29;;;;;;;5.15;3.50;;;26.70;80.60;;;;;;5072250;28;20205;-57
2021/09/04 12:14:57;;;;;;;3.72;3.33;;;26.80;80.30;;;;;;5072190;28;20225;-59
2021/09/04 12:17:25;;;;;;;6.22;4.00;;;26.80;79.70;;;;;;5072433;28;20752;-56
2021/09/04 12:19:52;;;;;;;4.22;3.83;;;26.90;79.50;;;;;;5072785;28;20209;-58
2021/09/04 12:22:31;;;;;;;4.82;3.38;;;26.90;79.20;;;;;;5072929;28;20307;-58
2021/09/04 12:24:58;;;;;;;4.32;3.60;;;26.90;80.40;;;;;;5072256;28;20273;-57
2021/09/04 12:27:40;;;;;;;6.15;3.47;;;27.00;80.30;;;;;;5072288;28;20274;-58
2021/09/04 12:30:08;;;;;;;4.15;3.45;;;27.00;79.00;;;;;;5072342;28;20212;-58
2021/09/04 12:32:36;;;;;;;3.30;2.70;;;27.00;79.00;;;;;;5072174;28;20299;-59
2021/09/04 12:35:04;;;;;;;5.70;3.63;;;27.00;77.90;;;;;;5071897;28;20263;-58
2021/09/04 12:37:33;;;;;;;4.15;3.40;;;27.00;77.90;;;;;;5071827;28;20686;-58
2021/09/04 12:40:07;;;;;;;6.10;3.20;;;27.10;76.10;;;;;;5071696;28;20204;-58
2021/09/04 12:42:34;;;;;;;4.18;3.42;;;27.10;77.60;;;;;;5071567;28;20580;-58
2021/09/04 12:45:07;;;;;;;3.95;3.17;;;27.10;76.70;;;;;;5071682;28;20229;-58
2021/09/04 12:47:42;;;;;;;5.25;3.58;;;27.10;76.10;;;;;;5071705;28;20212;-58
2021/09/04 12:50:20;;;;;;;6.03;4.05;;;27.20;73.60;;;;;;5072252;28;20743;-58
2021/09/04 12:53:03;;;;;;;4.40;3.40;;;27.10;74.30;;;;;;5071460;28;20201;-58